createdAt,value
2023-02-02T00:00:07.562Z,57.60
2023-02-02T00:01:07.551Z,57.89
2023-02-02T00:02:08.512Z,57.72
2023-02-02T00:03:07.620Z,58.27
2023-02-02T00:04:07.517Z,57.39
2023-02-02T00:05:07.503Z,58.07
2023-02-02T00:06:07.506Z,57.48
2023-02-02T00:07:07.517Z,57.46
2023-02-02T00:08:07.480Z,57.44
2023-02-02T00:09:07.463Z,60.19
2023-02-02T00:10:07.460Z,57.17
2023-02-02T00:11:07.488Z,57.38
2023-02-02T00:12:07.445Z,57.25
2023-02-02T00:13:07.445Z,56.85
2023-02-02T00:14:07.438Z,56.88
2023-02-02T00:15:07.423Z,56.70
2023-02-02T00:16:07.478Z,57.94
2023-02-02T00:17:07.400Z,57.70
2023-02-02T00:18:07.393Z,57.21
2023-02-02T00:19:07.397Z,57.07
2023-02-02T00:20:07.373Z,57.16
2023-02-02T00:21:07.409Z,56.63
2023-02-02T00:22:07.407Z,56.53
2023-02-02T00:23:07.353Z,56.96
2023-02-02T00:24:07.358Z,56.47
2023-02-02T00:25:07.345Z,56.41
2023-02-02T00:26:07.357Z,56.85
2023-02-02T00:27:07.344Z,56.55
2023-02-02T00:28:07.317Z,56.74
2023-02-02T00:29:08.325Z,56.38
2023-02-02T00:30:07.331Z,56.80
2023-02-02T00:31:07.387Z,56.50
2023-02-02T00:32:07.287Z,56.03
2023-02-02T00:33:07.296Z,55.95
2023-02-02T00:34:07.270Z,58.90
2023-02-02T00:35:07.273Z,56.61
2023-02-02T00:36:07.304Z,56.99
2023-02-02T00:37:07.259Z,58.92
2023-02-02T00:38:07.259Z,57.59
2023-02-02T00:39:07.249Z,55.93
2023-02-02T00:40:07.250Z,55.59
2023-02-02T00:41:07.273Z,56.49
2023-02-02T00:42:07.216Z,57.11
2023-02-02T00:43:07.208Z,55.70
2023-02-02T00:44:07.205Z,56.59
2023-02-02T00:45:07.205Z,56.34
2023-02-02T00:46:07.255Z,56.32
2023-02-02T00:47:07.188Z,55.68
2023-02-02T00:48:07.177Z,55.87
2023-02-02T00:49:07.171Z,55.95
2023-02-02T00:50:07.171Z,56.53
2023-02-02T00:51:07.190Z,57.22
2023-02-02T00:52:07.157Z,59.73
2023-02-02T00:53:07.140Z,56.45
2023-02-02T00:54:07.134Z,56.47
2023-02-02T00:55:07.124Z,56.31
2023-02-02T00:56:07.151Z,56.68
2023-02-02T00:57:07.125Z,55.32
2023-02-02T00:58:07.118Z,55.22
2023-02-02T00:59:07.117Z,56.07
2023-02-02T01:00:07.100Z,55.15
2023-02-02T01:01:07.110Z,55.07
2023-02-02T01:02:07.137Z,55.15
2023-02-02T01:03:07.104Z,55.00
2023-02-02T01:04:07.069Z,54.80
2023-02-02T01:05:07.062Z,55.32
2023-02-02T01:06:07.075Z,56.44
2023-02-02T01:07:07.030Z,55.59
2023-02-02T01:08:07.032Z,54.99
2023-02-02T01:09:07.019Z,54.57
2023-02-02T01:10:07.132Z,55.18
2023-02-02T01:11:07.034Z,54.87
2023-02-02T01:12:06.996Z,56.44
2023-02-02T01:13:06.990Z,55.77
2023-02-02T01:14:06.987Z,56.78
2023-02-02T01:15:06.987Z,56.53
2023-02-02T01:16:07.036Z,55.57
2023-02-02T01:17:06.948Z,56.02
2023-02-02T01:18:06.958Z,56.95
2023-02-02T01:19:06.962Z,55.71
2023-02-02T01:20:06.926Z,56.80
2023-02-02T01:21:06.959Z,54.81
2023-02-02T01:22:06.911Z,47.84
2023-02-02T01:23:06.909Z,42.08
2023-02-02T01:24:06.914Z,43.67
2023-02-02T01:25:06.902Z,46.73
2023-02-02T01:26:06.970Z,42.13
2023-02-02T01:27:06.884Z,43.76
2023-02-02T01:28:06.896Z,44.86
2023-02-02T01:29:06.898Z,42.15
2023-02-02T01:30:06.855Z,41.03
2023-02-02T01:31:06.925Z,40.27
2023-02-02T01:32:06.859Z,50.24
2023-02-02T01:33:06.827Z,49.55
2023-02-02T01:34:06.835Z,51.49
2023-02-02T01:35:06.886Z,42.96
2023-02-02T01:36:06.801Z,42.09
2023-02-02T01:37:06.821Z,50.02
2023-02-02T01:38:06.800Z,44.75
2023-02-02T01:39:06.790Z,48.22
2023-02-02T01:40:06.775Z,49.32
2023-02-02T01:41:06.790Z,47.85
2023-02-02T01:42:06.798Z,44.14
2023-02-02T01:43:06.745Z,43.85
2023-02-02T01:44:06.746Z,41.96
2023-02-02T01:45:06.747Z,46.16
2023-02-02T01:46:06.769Z,48.93
2023-02-02T01:47:06.776Z,43.51
2023-02-02T01:48:06.700Z,41.31
2023-02-02T01:49:07.713Z,44.46
2023-02-02T01:50:06.698Z,41.45
2023-02-02T01:51:06.689Z,40.92
2023-02-02T01:52:06.717Z,49.39
2023-02-02T01:53:06.690Z,44.74
2023-02-02T01:54:06.683Z,50.52
2023-02-02T01:55:06.655Z,49.91
2023-02-02T01:56:06.657Z,51.26
2023-02-02T01:57:06.678Z,49.16
2023-02-02T01:58:06.653Z,49.19
2023-02-02T01:59:06.649Z,47.20
2023-02-02T02:00:06.615Z,51.50
2023-02-02T02:01:06.646Z,50.27
2023-02-02T02:02:06.721Z,47.10
2023-02-02T02:03:06.589Z,49.31
2023-02-02T02:04:06.599Z,43.87
2023-02-02T02:05:06.592Z,46.62
2023-02-02T02:06:06.649Z,51.32
2023-02-02T02:07:06.597Z,50.32
2023-02-02T02:08:06.707Z,48.94
2023-02-02T02:09:06.559Z,50.87
2023-02-02T02:10:06.573Z,52.38
2023-02-02T02:11:06.544Z,50.68
2023-02-02T02:12:06.570Z,49.54
2023-02-02T02:13:06.539Z,46.18
2023-02-02T02:14:06.527Z,45.55
2023-02-02T02:15:06.532Z,53.24
2023-02-02T02:16:06.546Z,46.63
2023-02-02T02:17:06.535Z,48.63
2023-02-02T02:18:06.492Z,43.43
2023-02-02T02:19:06.493Z,43.13
2023-02-02T02:20:06.511Z,46.82
2023-02-02T02:21:06.487Z,49.89
2023-02-02T02:22:06.512Z,46.85
2023-02-02T02:23:06.458Z,49.88
2023-02-02T02:24:06.455Z,45.54
2023-02-02T02:25:06.444Z,45.37
2023-02-02T02:26:06.436Z,46.81
2023-02-02T02:27:06.473Z,48.28
2023-02-02T02:28:06.420Z,43.52
2023-02-02T02:29:06.434Z,51.68
2023-02-02T02:30:06.441Z,46.01
2023-02-02T02:31:06.517Z,47.07
2023-02-02T02:32:06.401Z,46.21
2023-02-02T02:33:06.436Z,45.35
2023-02-02T02:34:06.373Z,48.85
2023-02-02T02:35:06.399Z,49.42
2023-02-02T02:36:06.391Z,42.79
2023-02-02T02:37:06.354Z,42.78
2023-02-02T02:38:06.363Z,43.03
2023-02-02T02:39:06.356Z,42.94
2023-02-02T02:40:06.338Z,42.98
2023-02-02T02:41:06.341Z,43.63
2023-02-02T02:42:06.342Z,43.54
2023-02-02T02:43:06.335Z,50.37
2023-02-02T02:44:06.329Z,47.21
2023-02-02T02:45:06.292Z,44.06
2023-02-02T02:46:06.344Z,43.76
2023-02-02T02:47:06.281Z,50.59
2023-02-02T02:48:06.299Z,43.51
2023-02-02T02:49:06.274Z,46.05
2023-02-02T02:50:06.270Z,45.79
2023-02-02T02:51:06.268Z,46.94
2023-02-02T02:52:06.235Z,47.79
2023-02-02T02:53:06.275Z,50.08
2023-02-02T02:54:06.244Z,45.42
2023-02-02T02:55:06.219Z,43.20
2023-02-02T02:56:06.214Z,51.12
2023-02-02T02:57:06.200Z,46.58
2023-02-02T02:58:06.224Z,44.29
2023-02-02T02:59:06.177Z,43.49
2023-02-02T03:00:06.181Z,45.11
2023-02-02T03:01:06.169Z,45.09
2023-02-02T03:02:06.141Z,44.21
2023-02-02T03:03:07.213Z,46.96
2023-02-02T03:04:06.138Z,45.67
2023-02-02T03:05:06.129Z,49.31
2023-02-02T03:06:06.123Z,42.10
2023-02-02T03:07:06.116Z,41.77
2023-02-02T03:08:06.130Z,45.82
2023-02-02T03:09:06.106Z,45.76
2023-02-02T03:10:06.100Z,45.21
2023-02-02T03:11:06.099Z,48.81
2023-02-02T03:12:06.090Z,41.80
2023-02-02T03:13:06.118Z,42.09
2023-02-02T03:14:06.087Z,44.28
2023-02-02T03:15:06.095Z,41.63
2023-02-02T03:16:06.106Z,42.08
2023-02-02T03:17:06.054Z,46.74
2023-02-02T03:18:06.072Z,44.12
2023-02-02T03:19:06.064Z,46.24
2023-02-02T03:20:06.023Z,42.11
2023-02-02T03:21:06.053Z,45.79
2023-02-02T03:22:06.013Z,46.13
2023-02-02T03:23:06.030Z,47.26
2023-02-02T03:24:06.016Z,48.86
2023-02-02T03:25:05.987Z,49.31
2023-02-02T03:26:06.041Z,46.18
2023-02-02T03:27:05.975Z,55.12
2023-02-02T03:28:06.042Z,46.54
2023-02-02T03:29:05.980Z,50.68
2023-02-02T03:30:05.954Z,48.25
2023-02-02T03:31:06.006Z,45.39
2023-02-02T03:32:05.921Z,55.87
2023-02-02T03:33:05.943Z,43.90
2023-02-02T03:34:05.914Z,43.95
2023-02-02T03:35:05.907Z,41.81
2023-02-02T03:36:05.895Z,46.88
2023-02-02T03:37:05.894Z,53.80
2023-02-02T03:38:05.913Z,46.89
2023-02-02T03:39:05.891Z,45.00
2023-02-02T03:40:05.894Z,49.27
2023-02-02T03:41:05.854Z,53.57
2023-02-02T03:42:05.873Z,55.47
2023-02-02T03:43:05.867Z,46.08
2023-02-02T03:44:05.844Z,59.19
2023-02-02T03:45:05.828Z,56.75
2023-02-02T03:46:05.861Z,52.53
2023-02-02T03:47:05.813Z,60.74
2023-02-02T03:48:05.933Z,58.31
2023-02-02T03:49:05.804Z,58.09
2023-02-02T03:50:05.793Z,58.47
2023-02-02T03:51:05.787Z,54.08
2023-02-02T03:52:05.784Z,46.59
2023-02-02T03:53:05.803Z,43.77
2023-02-02T03:54:05.843Z,40.64
2023-02-02T03:55:05.754Z,54.93
2023-02-02T03:56:05.745Z,49.55
2023-02-02T03:57:05.769Z,45.95
2023-02-02T03:58:05.764Z,51.41
2023-02-02T03:59:05.730Z,51.16
2023-02-02T04:00:05.718Z,47.08
2023-02-02T04:01:05.730Z,50.16
2023-02-02T04:02:05.731Z,56.22
2023-02-02T04:03:05.794Z,53.06
2023-02-02T04:04:05.690Z,48.39
2023-02-02T04:05:05.707Z,48.68
2023-02-02T04:06:05.684Z,58.58
2023-02-02T04:07:05.675Z,60.63
2023-02-02T04:08:05.715Z,62.61
2023-02-02T04:09:05.666Z,60.42
2023-02-02T04:10:05.647Z,61.02
2023-02-02T04:11:05.660Z,60.34
2023-02-02T04:12:05.631Z,59.04
2023-02-02T04:13:05.697Z,59.13
2023-02-02T04:14:05.629Z,59.28
2023-02-02T04:15:05.621Z,59.06
2023-02-02T04:16:05.651Z,59.33
2023-02-02T04:17:05.593Z,59.33
2023-02-02T04:18:05.597Z,62.15
2023-02-02T04:19:05.650Z,60.60
2023-02-02T04:20:05.576Z,59.11
2023-02-02T04:21:05.575Z,58.53
2023-02-02T04:22:05.564Z,58.29
2023-02-02T04:23:05.575Z,58.99
2023-02-02T04:24:05.573Z,59.54
2023-02-02T04:25:05.617Z,59.89
2023-02-02T04:26:05.566Z,59.32
2023-02-02T04:27:05.529Z,59.07
2023-02-02T04:28:05.520Z,59.28
2023-02-02T04:29:05.546Z,60.05
2023-02-02T04:30:05.523Z,59.11
2023-02-02T04:31:05.623Z,60.46
2023-02-02T04:32:05.493Z,63.24
2023-02-02T04:33:05.494Z,62.09
2023-02-02T04:34:05.517Z,58.91
2023-02-02T04:35:05.470Z,58.51
2023-02-02T04:36:05.491Z,54.24
2023-02-02T04:37:05.470Z,51.68
2023-02-02T04:38:05.434Z,52.76
2023-02-02T04:39:05.461Z,56.98
2023-02-02T04:40:05.447Z,58.38
2023-02-02T04:41:05.467Z,50.13
2023-02-02T04:42:05.424Z,54.29
2023-02-02T04:43:05.426Z,59.64
2023-02-02T04:44:05.459Z,52.67
2023-02-02T04:45:05.425Z,54.97
2023-02-02T04:46:05.432Z,59.14
2023-02-02T04:47:05.388Z,61.48
2023-02-02T04:48:05.382Z,50.59
2023-02-02T04:49:05.382Z,56.96
2023-02-02T04:50:05.360Z,51.00
2023-02-02T04:51:05.355Z,51.38
2023-02-02T04:52:05.331Z,53.64
2023-02-02T04:53:05.347Z,54.03
2023-02-02T04:54:05.352Z,55.21
2023-02-02T04:55:05.313Z,48.93
2023-02-02T04:56:05.313Z,57.76
2023-02-02T04:57:05.296Z,55.15
2023-02-02T05:00:24.384Z,53.74
2023-02-02T05:01:24.404Z,53.45
2023-02-02T05:02:24.338Z,54.23
2023-02-02T05:03:24.328Z,54.50
2023-02-02T05:04:24.373Z,54.77
2023-02-02T05:05:24.676Z,51.90
2023-02-02T05:06:24.328Z,55.21
2023-02-02T05:07:24.301Z,58.69
2023-02-02T05:08:24.356Z,54.60
2023-02-02T05:09:24.328Z,56.21
2023-02-02T05:10:24.284Z,54.79
2023-02-02T05:11:25.422Z,56.81
2023-02-02T05:12:25.567Z,57.20
2023-02-02T05:13:25.397Z,60.68
2023-02-02T05:14:25.418Z,55.39
2023-02-02T05:15:25.830Z,55.50
2023-02-02T05:16:28.517Z,55.35
2023-02-02T05:17:25.370Z,54.76
2023-02-02T05:18:25.361Z,50.44
2023-02-02T05:19:25.378Z,58.37
2023-02-02T05:20:25.348Z,55.30
2023-02-02T05:21:25.330Z,56.60
2023-02-02T05:22:25.329Z,52.69
2023-02-02T05:23:25.316Z,54.07
2023-02-02T05:24:25.337Z,57.30
2023-02-02T05:25:25.670Z,55.65
2023-02-02T05:26:25.390Z,60.56
2023-02-02T05:27:25.303Z,59.45
2023-02-02T05:28:25.383Z,60.66
2023-02-02T05:29:25.319Z,62.44
2023-02-02T05:30:25.256Z,61.23
2023-02-02T05:31:25.341Z,61.11
2023-02-02T05:32:25.244Z,59.49
2023-02-02T05:33:25.248Z,60.46
2023-02-02T05:34:25.275Z,61.07
2023-02-02T05:35:25.574Z,63.66
2023-02-02T05:36:25.219Z,60.78
2023-02-02T05:37:25.214Z,61.00
2023-02-02T05:38:25.207Z,62.06
2023-02-02T05:39:25.231Z,61.30
2023-02-02T05:40:25.197Z,61.32
2023-02-02T05:41:25.180Z,61.14
2023-02-02T05:42:25.313Z,60.81
2023-02-02T05:43:25.169Z,60.89
2023-02-02T05:44:25.191Z,61.17
2023-02-02T05:45:25.520Z,61.24
2023-02-02T05:46:25.143Z,60.87
2023-02-02T05:47:25.135Z,60.81
2023-02-02T05:48:25.131Z,61.30
2023-02-02T05:49:25.151Z,62.47
2023-02-02T05:50:25.116Z,61.19
2023-02-02T05:51:25.111Z,61.40
2023-02-02T05:52:25.100Z,61.71
2023-02-02T05:53:25.089Z,61.60
2023-02-02T05:54:25.220Z,61.11
2023-02-02T05:55:25.415Z,61.48
2023-02-02T05:56:25.075Z,65.97
2023-02-02T05:57:25.070Z,61.94
2023-02-02T05:58:25.145Z,62.47
2023-02-02T05:59:25.074Z,61.39
2023-02-02T06:00:25.080Z,61.84
2023-02-02T06:01:25.034Z,62.48
2023-02-02T06:02:25.036Z,62.25
2023-02-02T06:03:25.128Z,61.80
2023-02-02T06:04:25.038Z,61.21
2023-02-02T06:05:25.401Z,62.26
2023-02-02T06:06:24.992Z,61.75
2023-02-02T06:07:24.987Z,63.31
2023-02-02T06:08:24.982Z,66.31
2023-02-02T06:09:24.996Z,62.05
2023-02-02T06:10:24.964Z,61.85
2023-02-02T06:11:24.973Z,64.02
2023-02-02T06:12:24.960Z,63.92
2023-02-02T06:13:24.941Z,61.73
2023-02-02T06:14:24.966Z,62.48
2023-02-02T06:15:25.525Z,62.36
2023-02-02T06:16:24.924Z,62.56
2023-02-02T06:17:24.944Z,62.11
2023-02-02T06:18:24.898Z,62.58
2023-02-02T06:19:24.956Z,62.36
2023-02-02T06:20:24.893Z,61.82
2023-02-02T06:21:24.888Z,61.80
2023-02-02T06:22:24.877Z,61.38
2023-02-02T06:23:24.925Z,65.11
2023-02-02T06:24:24.899Z,61.48
2023-02-02T06:25:25.214Z,63.56
2023-02-02T06:26:24.939Z,61.57
2023-02-02T06:27:24.843Z,61.07
2023-02-02T06:28:24.835Z,64.97
2023-02-02T06:29:24.870Z,61.65
2023-02-02T06:30:24.896Z,61.22
2023-02-02T06:31:25.152Z,61.48
2023-02-02T06:32:24.809Z,61.19
2023-02-02T06:33:24.803Z,61.01
2023-02-02T06:34:24.857Z,61.06
2023-02-02T06:35:25.252Z,60.81
2023-02-02T06:36:24.838Z,61.51
2023-02-02T06:37:24.771Z,61.62
2023-02-02T06:38:24.768Z,61.08
2023-02-02T06:39:24.773Z,61.57
2023-02-02T06:40:24.746Z,61.17
2023-02-02T06:41:24.736Z,64.39
2023-02-02T06:42:24.733Z,61.00
2023-02-02T06:43:24.725Z,62.05
2023-02-02T06:44:24.753Z,61.07
2023-02-02T06:45:25.012Z,60.78
2023-02-02T06:46:24.733Z,62.81
2023-02-02T06:47:26.827Z,66.38
2023-02-02T06:48:25.729Z,61.67
2023-02-02T06:49:24.776Z,60.92
2023-02-02T06:50:24.671Z,60.72
2023-02-02T06:51:24.673Z,64.54
2023-02-02T06:52:24.659Z,61.55
2023-02-02T06:53:24.660Z,60.46
2023-02-02T06:54:24.712Z,60.88
2023-02-02T06:55:25.004Z,64.24
2023-02-02T06:56:24.615Z,60.54
2023-02-02T06:57:24.639Z,62.12
2023-02-02T06:58:24.614Z,61.89
2023-02-02T06:59:24.792Z,63.53
2023-02-02T07:00:24.634Z,60.30
2023-02-02T07:01:24.664Z,60.41
2023-02-02T07:02:24.620Z,63.87
2023-02-02T07:03:24.563Z,61.37
2023-02-02T07:04:24.574Z,60.60
2023-02-02T07:05:25.121Z,60.87
2023-02-02T07:06:24.555Z,60.99
2023-02-02T07:07:24.553Z,62.17
2023-02-02T07:08:24.552Z,60.21
2023-02-02T07:09:24.640Z,63.95
2023-02-02T07:11:12.672Z,60.76
2023-02-02T07:11:25.539Z,59.99
2023-02-02T07:12:24.505Z,60.84
2023-02-02T07:13:24.505Z,60.60
2023-02-02T07:14:24.499Z,59.93
2023-02-02T07:15:24.876Z,60.80
2023-02-02T07:16:24.527Z,60.47
2023-02-02T07:17:24.491Z,62.49
2023-02-02T07:18:24.478Z,61.04
2023-02-02T07:19:24.477Z,59.29
2023-02-02T07:20:24.485Z,61.51
2023-02-02T07:21:24.442Z,59.26
2023-02-02T07:22:24.432Z,61.25
2023-02-02T07:23:24.429Z,59.98
2023-02-02T07:24:24.437Z,60.31
2023-02-02T07:25:24.775Z,59.32
2023-02-02T07:26:24.478Z,63.37
2023-02-02T07:27:24.395Z,59.41
2023-02-02T07:28:24.392Z,59.34
2023-02-02T07:29:24.491Z,61.63
2023-02-02T07:30:24.422Z,60.88
2023-02-02T07:31:24.380Z,58.99
2023-02-02T07:32:24.366Z,59.08
2023-02-02T07:33:24.350Z,60.90
2023-02-02T07:34:24.342Z,60.35
2023-02-02T07:35:24.654Z,59.13
2023-02-02T07:36:24.350Z,60.53
2023-02-02T07:37:24.314Z,64.02
2023-02-02T07:38:24.311Z,60.48
2023-02-02T07:39:24.303Z,60.20
2023-02-02T07:40:24.320Z,60.47
2023-02-02T07:41:24.289Z,60.42
2023-02-02T07:42:24.285Z,60.48
2023-02-02T07:43:24.271Z,60.92
2023-02-02T07:44:24.264Z,60.96
2023-02-02T07:45:24.607Z,60.28
2023-02-02T07:46:24.325Z,60.13
2023-02-02T07:47:24.239Z,61.41
2023-02-02T07:48:24.229Z,61.63
2023-02-02T07:49:24.222Z,63.44
2023-02-02T07:50:24.240Z,60.36
2023-02-02T07:51:24.212Z,60.17
2023-02-02T07:52:24.207Z,60.23
2023-02-02T07:53:24.211Z,60.31
2023-02-02T07:54:24.194Z,61.17
2023-02-02T07:55:24.210Z,59.53
2023-02-02T07:56:24.181Z,61.69
2023-02-02T07:57:24.165Z,61.59
2023-02-02T07:58:24.155Z,59.87
2023-02-02T07:59:24.160Z,58.79
2023-02-02T08:00:24.215Z,57.34
2023-02-02T08:01:24.185Z,61.81
2023-02-02T08:02:24.125Z,55.83
2023-02-02T08:03:24.119Z,60.70
2023-02-02T08:04:24.110Z,58.37
2023-02-02T08:05:24.527Z,58.48
2023-02-02T08:06:24.091Z,58.87
2023-02-02T08:07:24.131Z,57.95
2023-02-02T08:08:24.087Z,57.48
2023-02-02T08:09:24.170Z,58.81
2023-02-02T08:10:24.231Z,61.61
2023-02-02T08:11:24.080Z,58.27
2023-02-02T08:12:24.885Z,58.69
2023-02-02T08:13:25.042Z,62.12
2023-02-02T08:14:24.031Z,59.09
2023-02-02T08:15:24.300Z,58.11
2023-02-02T08:16:24.067Z,57.61
2023-02-02T08:17:24.015Z,58.87
2023-02-02T08:18:24.010Z,59.57
2023-02-02T08:19:23.998Z,58.03
2023-02-02T08:20:24.017Z,59.24
2023-02-02T08:21:23.990Z,57.72
2023-02-02T08:22:24.027Z,58.61
2023-02-02T08:23:24.013Z,62.90
2023-02-02T08:24:23.969Z,58.53
2023-02-02T08:25:24.437Z,58.33
2023-02-02T08:26:23.983Z,59.56
2023-02-02T08:27:23.936Z,62.93
2023-02-02T08:28:23.940Z,58.43
2023-02-02T08:29:23.926Z,59.02
2023-02-02T08:30:23.977Z,59.60
2023-02-02T08:31:23.935Z,56.76
2023-02-02T08:32:23.909Z,61.71
2023-02-02T08:33:23.913Z,58.35
2023-02-02T08:34:23.895Z,57.99
2023-02-02T08:35:24.194Z,58.50
2023-02-02T08:36:24.883Z,56.03
2023-02-02T08:37:23.872Z,59.09
2023-02-02T08:38:23.881Z,56.16
2023-02-02T08:39:23.854Z,59.93
2023-02-02T08:40:24.006Z,58.53
2023-02-02T08:41:23.856Z,55.74
2023-02-02T08:42:23.824Z,60.21
2023-02-02T08:43:23.815Z,55.01
2023-02-02T08:44:23.811Z,59.36
2023-02-02T08:46:07.745Z,54.26
2023-02-02T08:46:24.819Z,57.42
2023-02-02T08:47:23.799Z,57.78
2023-02-02T08:48:23.784Z,63.37
2023-02-02T08:49:23.773Z,57.67
2023-02-02T08:50:23.784Z,56.01
2023-02-02T08:51:24.766Z,55.75
2023-02-02T08:52:25.689Z,57.86
2023-02-02T08:53:24.730Z,61.44
2023-02-02T08:54:24.741Z,57.97
2023-02-02T08:55:24.153Z,58.49
2023-02-02T08:56:23.727Z,59.25
2023-02-02T08:57:23.706Z,56.63
2023-02-02T08:58:23.709Z,58.44
2023-02-02T08:59:23.706Z,58.28
2023-02-02T09:00:23.687Z,57.88
2023-02-02T09:01:23.799Z,62.96
2023-02-02T09:02:23.724Z,58.46
2023-02-02T09:03:23.666Z,55.98
2023-02-02T09:04:23.684Z,56.73
2023-02-02T09:05:24.187Z,58.31
2023-02-02T09:06:23.668Z,60.12
2023-02-02T09:07:23.640Z,58.92
2023-02-02T09:08:23.655Z,58.40
2023-02-02T09:09:23.645Z,58.94
2023-02-02T09:10:23.641Z,56.70
2023-02-02T09:11:23.633Z,58.59
2023-02-02T09:12:23.603Z,62.12
2023-02-02T09:13:23.591Z,56.74
2023-02-02T09:14:23.591Z,59.76
2023-02-02T09:15:23.906Z,54.47
2023-02-02T09:16:23.633Z,57.32
2023-02-02T09:17:23.556Z,59.78
2023-02-02T09:18:24.674Z,61.91
2023-02-02T09:19:23.555Z,57.78
2023-02-02T09:20:23.544Z,59.76
2023-02-02T09:21:23.561Z,58.85
2023-02-02T09:22:23.527Z,55.88
2023-02-02T09:23:23.521Z,58.24
2023-02-02T09:24:23.522Z,56.12
2023-02-02T09:25:23.865Z,59.37
2023-02-02T09:26:23.581Z,62.23
2023-02-02T09:27:23.493Z,57.08
2023-02-02T09:28:23.490Z,56.76
2023-02-02T09:29:23.485Z,54.21
2023-02-02T09:30:23.485Z,60.51
2023-02-02T09:31:23.553Z,57.85
2023-02-02T09:32:23.449Z,58.22
2023-02-02T09:33:23.442Z,55.80
2023-02-02T09:34:23.452Z,57.03
2023-02-02T09:35:23.824Z,58.05
2023-02-02T09:36:23.452Z,56.75
2023-02-02T09:37:23.414Z,56.99
2023-02-02T09:38:23.406Z,54.19
2023-02-02T09:39:23.400Z,54.15
2023-02-02T09:40:23.429Z,56.68
2023-02-02T09:41:23.409Z,59.96
2023-02-02T09:42:23.390Z,57.52
2023-02-02T09:43:23.379Z,55.44
2023-02-02T09:44:23.359Z,56.15
2023-02-02T09:45:23.879Z,59.62
2023-02-02T09:46:25.780Z,58.04
2023-02-02T09:47:23.346Z,55.06
2023-02-02T09:48:23.330Z,60.33
2023-02-02T09:49:23.331Z,56.92
2023-02-02T09:50:23.318Z,56.23
2023-02-02T09:51:23.494Z,58.76
2023-02-02T09:52:23.304Z,57.54
2023-02-02T09:53:23.296Z,58.87
2023-02-02T09:54:23.288Z,60.56
2023-02-02T09:55:23.666Z,59.03
2023-02-02T09:56:23.303Z,62.53
2023-02-02T09:57:23.315Z,59.32
2023-02-02T09:58:23.254Z,59.22
2023-02-02T09:59:24.581Z,58.07
2023-02-02T10:00:24.238Z,56.86
2023-02-02T10:01:23.313Z,57.35
2023-02-02T10:02:23.238Z,59.69
2023-02-02T10:03:23.218Z,60.63
2023-02-02T10:04:23.218Z,60.88
2023-02-02T10:05:23.622Z,59.39
2023-02-02T10:06:23.224Z,58.55
2023-02-02T10:07:23.216Z,64.64
2023-02-02T10:08:34.428Z,58.11
2023-02-02T10:09:25.220Z,55.94
2023-02-02T10:10:23.197Z,58.38
2023-02-02T10:11:23.169Z,60.70
2023-02-02T10:12:23.183Z,58.96
2023-02-02T10:13:23.141Z,57.98
2023-02-02T10:14:23.187Z,59.45
2023-02-02T10:15:23.590Z,63.18
2023-02-02T10:16:23.145Z,60.63
2023-02-02T10:17:23.308Z,61.24
2023-02-02T10:18:23.147Z,61.48
2023-02-02T10:19:23.107Z,61.49
2023-02-02T10:20:23.334Z,63.31
2023-02-02T10:21:23.087Z,60.79
2023-02-02T10:22:23.116Z,62.01
2023-02-02T10:23:23.078Z,61.80
2023-02-02T10:24:23.070Z,62.11
2023-02-02T10:25:23.156Z,61.52
2023-02-02T10:26:23.167Z,61.31
2023-02-02T10:27:23.161Z,62.31
2023-02-02T10:28:23.039Z,61.20
2023-02-02T10:29:23.039Z,61.75
2023-02-02T10:30:23.411Z,65.57
2023-02-02T10:31:23.080Z,61.91
2023-02-02T10:32:23.215Z,61.21
2023-02-02T10:33:22.999Z,60.08
2023-02-02T10:34:23.049Z,61.18
2023-02-02T10:35:23.085Z,64.77
2023-02-02T10:36:22.983Z,61.52
2023-02-02T10:37:23.008Z,63.11
2023-02-02T10:38:22.975Z,67.38
2023-02-02T10:39:22.966Z,61.45
2023-02-02T10:40:23.017Z,61.61
2023-02-02T10:41:22.951Z,61.88
2023-02-02T10:42:22.976Z,64.75
2023-02-02T10:43:22.937Z,61.97
2023-02-02T10:44:22.926Z,61.70
2023-02-02T10:45:22.912Z,60.75
2023-02-02T10:46:23.015Z,57.10
2023-02-02T10:47:22.914Z,59.58
2023-02-02T10:48:22.930Z,55.65
2023-02-02T10:49:22.940Z,57.35
2023-02-02T10:50:23.225Z,59.29
2023-02-02T10:51:22.881Z,61.05
2023-02-02T10:52:22.879Z,60.87
2023-02-02T10:53:22.895Z,58.53
2023-02-02T10:54:22.853Z,56.87
2023-02-02T10:55:22.848Z,57.38
2023-02-02T10:56:22.834Z,59.18
2023-02-02T10:57:22.833Z,55.65
2023-02-02T10:58:56.633Z,62.32
2023-02-02T10:59:22.887Z,60.38
2023-02-02T11:00:23.480Z,60.94
2023-02-02T11:01:23.995Z,61.87
2023-02-02T11:02:22.841Z,60.77
2023-02-02T11:03:22.834Z,61.02
2023-02-02T11:04:22.787Z,65.82
2023-02-02T11:05:22.799Z,61.41
2023-02-02T11:06:22.773Z,64.18
2023-02-02T11:07:22.784Z,61.39
2023-02-02T11:08:22.807Z,62.89
2023-02-02T11:09:22.757Z,61.72
2023-02-02T11:10:22.946Z,61.90
2023-02-02T11:11:22.748Z,61.67
2023-02-02T11:12:22.736Z,61.89
2023-02-02T11:13:22.774Z,62.75
2023-02-02T11:14:22.727Z,61.41
2023-02-02T11:15:22.691Z,61.62
2023-02-02T11:16:22.841Z,61.16
2023-02-02T11:17:22.708Z,60.93
2023-02-02T11:18:22.725Z,60.66
2023-02-02T11:19:22.693Z,63.72
2023-02-02T11:20:22.829Z,61.75
2023-02-02T11:21:22.671Z,61.57
2023-02-02T11:22:22.647Z,61.97
2023-02-02T11:23:22.685Z,61.07
2023-02-02T11:24:22.647Z,60.81
2023-02-02T11:25:22.650Z,62.80
2023-02-02T11:26:22.638Z,60.45
2023-02-02T11:27:22.601Z,61.91
2023-02-02T11:28:22.659Z,64.10
2023-02-02T11:29:22.589Z,62.39
2023-02-02T11:30:22.881Z,61.48
2023-02-02T11:31:22.675Z,62.00
2023-02-02T11:32:22.576Z,62.57
2023-02-02T11:33:22.591Z,62.52
2023-02-02T11:34:22.560Z,58.70
2023-02-02T11:35:22.550Z,54.11
2023-02-02T11:36:22.586Z,57.29
2023-02-02T11:37:22.537Z,59.37
2023-02-02T11:38:22.575Z,62.12
2023-02-02T11:39:22.525Z,58.97
2023-02-02T11:40:22.568Z,63.00
2023-02-02T11:41:22.518Z,59.04
2023-02-02T11:42:22.518Z,57.43
2023-02-02T11:43:22.489Z,58.00
2023-02-02T11:44:22.547Z,59.03
2023-02-02T11:45:22.478Z,57.88
2023-02-02T11:46:22.519Z,59.27
2023-02-02T11:47:22.455Z,58.88
2023-02-02T11:48:22.467Z,58.43
2023-02-02T11:49:22.492Z,55.55
2023-02-02T11:50:22.724Z,56.40
2023-02-02T11:51:22.537Z,59.82
2023-02-02T11:52:22.467Z,60.66
2023-02-02T11:53:22.442Z,56.15
2023-02-02T11:54:22.489Z,58.97
2023-02-02T11:55:22.456Z,58.23
2023-02-02T11:56:22.407Z,56.25
2023-02-02T11:57:22.397Z,54.92
2023-02-02T11:58:22.397Z,56.24
2023-02-02T11:59:22.414Z,58.25
2023-02-02T12:00:22.453Z,58.06
2023-02-02T12:01:22.359Z,57.73
2023-02-02T12:02:22.395Z,60.52
2023-02-02T12:03:22.341Z,62.06
2023-02-02T12:04:22.431Z,57.42
2023-02-02T12:05:22.324Z,58.50
2023-02-02T12:06:22.326Z,56.07
2023-02-02T12:07:22.308Z,57.10
2023-02-02T12:08:22.310Z,60.29
2023-02-02T12:09:22.376Z,61.63
2023-02-02T12:10:22.363Z,57.51
2023-02-02T12:11:22.280Z,58.55
2023-02-02T12:12:22.305Z,58.28
2023-02-02T12:13:22.292Z,59.42
2023-02-02T12:14:22.352Z,60.20
2023-02-02T12:15:22.273Z,60.32
2023-02-02T12:16:22.280Z,59.17
2023-02-02T12:17:22.255Z,59.39
2023-02-02T12:18:22.228Z,65.05
2023-02-02T12:19:22.282Z,61.29
2023-02-02T12:20:22.285Z,62.51
2023-02-02T12:21:22.216Z,61.84
2023-02-02T12:22:22.190Z,62.22
2023-02-02T12:23:22.196Z,62.38
2023-02-02T12:24:22.263Z,61.16
2023-02-02T12:25:22.339Z,64.92
2023-02-02T12:26:22.232Z,61.81
2023-02-02T12:27:22.213Z,61.82
2023-02-02T12:28:22.154Z,60.88
2023-02-02T12:29:22.173Z,63.64
2023-02-02T12:30:22.185Z,61.15
2023-02-02T12:31:22.205Z,61.59
2023-02-02T12:32:22.149Z,62.18
2023-02-02T12:33:22.177Z,62.13
2023-02-02T12:34:22.148Z,62.12
2023-02-02T12:35:22.169Z,61.94
2023-02-02T12:36:22.116Z,62.30
2023-02-02T12:37:22.090Z,61.03
2023-02-02T12:38:22.080Z,61.98
2023-02-02T12:39:22.096Z,62.73
2023-02-02T12:40:22.092Z,60.70
2023-02-02T12:41:22.088Z,61.44
2023-02-02T12:42:22.047Z,59.67
2023-02-02T12:43:22.053Z,61.83
2023-02-02T12:44:22.055Z,63.27
2023-02-02T12:45:22.079Z,62.29
2023-02-02T12:46:22.032Z,61.28
2023-02-02T12:47:22.031Z,60.84
2023-02-02T12:48:22.006Z,60.65
2023-02-02T12:49:23.010Z,66.25
2023-02-02T12:50:22.031Z,60.82
2023-02-02T12:51:21.970Z,61.45
2023-02-02T12:52:21.986Z,61.79
2023-02-02T12:53:21.971Z,61.77
2023-02-02T12:54:34.643Z,61.43